createdAt,value
2022-09-04T00:00:08.435Z,1.40
2022-09-04T00:04:07.208Z,2.50
2022-09-04T00:07:21.001Z,3.90
2022-09-04T00:10:29.942Z,1.50
2022-09-04T00:13:37.039Z,2.03
2022-09-04T00:16:55.712Z,1.45
2022-09-04T00:20:04.964Z,1.77
2022-09-04T00:23:18.522Z,3.95
2022-09-04T00:26:54.469Z,2.60
2022-09-04T00:30:07.556Z,2.60
2022-09-04T00:33:19.477Z,1.25
2022-09-04T00:36:22.991Z,2.95
2022-09-04T00:39:35.982Z,1.33
2022-09-04T00:43:23.114Z,2.83
2022-09-04T00:46:39.626Z,4.45
2022-09-04T00:49:44.824Z,0.85
2022-09-04T00:53:02.597Z,2.15
2022-09-04T00:56:37.002Z,4.10
2022-09-04T01:00:07.674Z,1.38
2022-09-04T01:03:12.801Z,1.67
2022-09-04T01:06:37.905Z,11.85
2022-09-04T01:10:00.337Z,1.98
2022-09-04T01:13:34.150Z,1.77
2022-09-04T01:16:52.332Z,2.22
2022-09-04T01:20:15.190Z,1.88
2022-09-04T01:23:31.802Z,1.90
2022-09-04T01:27:00.192Z,1.25
2022-09-04T01:30:10.697Z,1.92
2022-09-04T01:33:19.939Z,2.28
2022-09-04T01:36:44.044Z,5.05
2022-09-04T01:39:57.124Z,2.65
2022-09-04T01:43:14.133Z,3.53
2022-09-04T01:46:34.252Z,1.77
2022-09-04T01:49:39.005Z,1.48
2022-09-04T01:52:56.790Z,1.77
2022-09-04T01:56:04.650Z,2.25
2022-09-04T01:59:11.927Z,1.75
2022-09-04T02:02:23.550Z,4.90
2022-09-04T02:05:40.844Z,3.67
2022-09-04T02:08:55.371Z,2.30
2022-09-04T02:12:06.424Z,2.45
2022-09-04T02:15:39.122Z,1.50
2022-09-04T02:19:12.349Z,1.98
2022-09-04T02:22:25.327Z,1.20
2022-09-04T02:25:36.617Z,1.85
2022-09-04T02:28:54.233Z,1.10
2022-09-04T02:32:19.100Z,1.70
2022-09-04T02:35:26.776Z,3.10
2022-09-04T02:38:57.130Z,2.55
2022-09-04T02:42:33.081Z,2.03
2022-09-04T02:45:46.396Z,2.25
2022-09-04T02:49:00.450Z,1.98
2022-09-04T02:52:24.271Z,1.58
2022-09-04T02:55:49.402Z,1.67
2022-09-04T02:58:57.774Z,1.50
2022-09-04T03:02:04.666Z,1.40
2022-09-04T03:05:20.012Z,5.03
2022-09-04T03:08:27.781Z,3.33
2022-09-04T03:11:41.649Z,2.20
2022-09-04T03:14:49.577Z,1.88
2022-09-04T03:18:36.775Z,1.33
2022-09-04T03:21:45.289Z,3.28
2022-09-04T03:24:50.243Z,3.78
2022-09-04T03:27:56.808Z,2.67
2022-09-04T03:31:11.329Z,1.48
2022-09-04T03:34:24.382Z,2.38
2022-09-04T03:37:41.365Z,1.55
2022-09-04T03:41:25.312Z,2.30
2022-09-04T03:44:36.411Z,2.15
2022-09-04T03:47:50.502Z,2.28
2022-09-04T03:51:25.835Z,1.95
2022-09-04T03:54:44.512Z,1.23
2022-09-04T03:57:56.562Z,1.90
2022-09-04T04:01:24.848Z,2.47
2022-09-04T04:04:52.288Z,3.85
2022-09-04T04:08:17.573Z,2.03
2022-09-04T04:11:43.702Z,2.53
2022-09-04T04:15:10.400Z,3.88
2022-09-04T04:18:22.180Z,1.83
2022-09-04T04:21:55.691Z,2.88
2022-09-04T04:24:57.779Z,2.20
2022-09-04T04:28:22.261Z,2.83
2022-09-04T04:31:38.934Z,6.47
2022-09-04T04:35:03.219Z,2.17
2022-09-04T04:38:18.742Z,3.97
2022-09-04T04:41:24.953Z,2.47
2022-09-04T04:45:23.914Z,1.80
2022-09-04T04:55:18.278Z,2.40
2022-09-04T04:58:51.602Z,2.08
2022-09-04T05:02:26.700Z,3.10
2022-09-04T05:05:46.847Z,2.42
2022-09-04T05:09:02.063Z,2.88
2022-09-04T05:12:49.282Z,1.98
2022-09-04T05:16:18.952Z,4.05
2022-09-04T05:19:41.601Z,2.25
2022-09-04T05:22:49.589Z,2.20
2022-09-04T05:26:06.458Z,3.17
2022-09-04T05:29:21.192Z,2.85
2022-09-04T05:32:33.332Z,3.28
2022-09-04T05:35:56.343Z,3.75
2022-09-04T05:39:30.643Z,2.08
2022-09-04T05:42:41.971Z,2.72
2022-09-04T05:45:57.608Z,5.22
2022-09-04T05:49:45.511Z,2.95
2022-09-04T05:53:13.957Z,2.05
2022-09-04T05:56:40.285Z,2.15
2022-09-04T05:59:55.080Z,2.33
2022-09-04T06:03:13.698Z,2.53
2022-09-04T06:06:37.028Z,3.70
2022-09-04T06:10:07.981Z,2.05
2022-09-04T06:13:09.882Z,2.50
2022-09-04T06:16:26.935Z,1.80
2022-09-04T06:19:40.943Z,2.35
2022-09-04T06:23:20.414Z,2.47
2022-09-04T06:30:09.179Z,2.15
2022-09-04T06:33:26.704Z,1.98
2022-09-04T06:36:57.979Z,2.75
2022-09-04T06:40:12.736Z,2.70
2022-09-04T06:43:36.526Z,4.40
2022-09-04T06:46:54.306Z,2.63
2022-09-04T06:50:16.508Z,4.85
2022-09-04T06:53:43.838Z,1.63
2022-09-04T07:00:18.726Z,2.90
2022-09-04T07:03:41.980Z,3.45
2022-09-04T07:07:08.753Z,7.45
2022-09-04T07:10:17.448Z,2.65
2022-09-04T07:13:41.395Z,3.55
2022-09-04T07:17:00.671Z,2.25
2022-09-04T07:20:19.948Z,5.72
2022-09-04T07:23:23.839Z,3.40
2022-09-04T07:26:49.062Z,3.47
2022-09-04T07:29:59.108Z,3.05
2022-09-04T07:33:16.686Z,2.90
2022-09-04T07:36:37.327Z,4.22
2022-09-04T07:39:49.504Z,3.78
2022-09-04T07:43:12.963Z,3.78
2022-09-04T07:46:30.647Z,6.20
2022-09-04T07:49:42.787Z,4.63
2022-09-04T07:53:14.955Z,7.05
2022-09-04T07:56:29.779Z,3.40
2022-09-04T07:59:38.966Z,2.92
2022-09-04T08:02:53.396Z,5.65
2022-09-04T08:06:12.168Z,3.35
2022-09-04T08:09:58.997Z,3.60
2022-09-04T08:13:15.548Z,3.63
2022-09-04T08:16:39.529Z,3.00
2022-09-04T08:20:06.981Z,3.33
2022-09-04T08:23:28.711Z,3.42
2022-09-04T08:26:59.816Z,5.13
2022-09-04T08:30:09.938Z,4.70
2022-09-04T08:33:24.336Z,4.72
2022-09-04T08:36:55.793Z,3.67
2022-09-04T08:40:16.203Z,3.47
2022-09-04T08:43:25.850Z,2.83
2022-09-04T08:46:34.570Z,2.83
2022-09-04T08:49:57.818Z,2.78
2022-09-04T08:53:14.349Z,6.28
2022-09-04T08:56:31.760Z,4.05
2022-09-04T08:59:38.794Z,3.50
2022-09-04T09:02:58.991Z,3.28
2022-09-04T09:06:38.301Z,3.42
2022-09-04T09:10:15.906Z,3.63
2022-09-04T09:13:18.144Z,2.58
2022-09-04T09:16:22.780Z,3.42
2022-09-04T09:19:27.829Z,3.95
2022-09-04T09:22:49.334Z,5.32
2022-09-04T09:26:10.982Z,3.70
2022-09-04T09:29:37.698Z,2.75
2022-09-04T09:32:54.837Z,5.30
2022-09-04T09:36:12.477Z,5.13
2022-09-04T09:39:38.171Z,3.70
2022-09-04T09:43:02.222Z,2.97
2022-09-04T09:46:04.925Z,3.03
2022-09-04T09:49:52.149Z,3.05
2022-09-04T09:53:46.450Z,3.50
2022-09-04T09:57:39.188Z,5.53
2022-09-04T10:00:53.156Z,3.13
2022-09-04T10:04:21.687Z,5.30
2022-09-04T10:07:52.092Z,3.42
2022-09-04T10:11:29.098Z,3.70
2022-09-04T10:15:23.782Z,3.85
2022-09-04T10:18:33.583Z,4.05
2022-09-04T10:21:53.729Z,3.45
2022-09-04T10:25:29.406Z,5.22
2022-09-04T10:28:47.867Z,3.80
2022-09-04T10:32:05.831Z,4.03
2022-09-04T10:35:09.858Z,4.85
2022-09-04T10:39:29.242Z,3.40
2022-09-04T10:42:40.658Z,3.40
2022-09-04T10:45:58.914Z,3.72
2022-09-04T10:49:04.478Z,4.53
2022-09-04T10:52:34.678Z,3.25
2022-09-04T10:55:42.932Z,4.20
2022-09-04T10:59:11.134Z,3.25
2022-09-04T11:02:34.804Z,5.85
2022-09-04T11:05:57.625Z,3.67
2022-09-04T11:09:22.281Z,3.50
2022-09-04T11:12:53.284Z,4.00
2022-09-04T11:16:14.259Z,2.50
2022-09-04T11:19:25.666Z,4.88
2022-09-04T11:22:59.612Z,3.55
2022-09-04T11:26:11.085Z,4.63
2022-09-04T11:29:20.507Z,3.05
2022-09-04T11:33:02.714Z,7.25
2022-09-04T11:36:19.223Z,3.33
2022-09-04T11:39:51.108Z,7.22
2022-09-04T11:43:14.808Z,4.00
2022-09-04T11:46:53.686Z,3.78
2022-09-04T11:50:30.247Z,3.28
2022-09-04T11:53:48.820Z,3.25
2022-09-04T11:57:15.839Z,2.42
2022-09-04T12:00:19.535Z,3.28
2022-09-04T12:03:30.457Z,3.17
2022-09-04T12:07:02.399Z,4.78
2022-09-04T12:10:50.933Z,2.67
2022-09-04T12:14:18.966Z,3.15
2022-09-04T12:18:01.888Z,2.80
2022-09-04T12:21:35.546Z,2.85
2022-09-04T12:25:05.995Z,2.58
2022-09-04T12:28:27.731Z,2.58
2022-09-04T12:31:36.608Z,3.25
2022-09-04T12:35:09.307Z,4.20
2022-09-04T12:38:11.412Z,5.95
2022-09-04T12:41:20.568Z,3.90
2022-09-04T12:44:30.387Z,3.58
2022-09-04T12:47:55.525Z,3.05
2022-09-04T12:50:59.784Z,2.90
2022-09-04T12:54:10.830Z,3.47
2022-09-04T12:57:34.918Z,5.38
2022-09-04T13:01:04.662Z,2.40
2022-09-04T13:04:28.686Z,1.85
2022-09-04T13:07:44.311Z,3.22
2022-09-04T13:10:56.045Z,2.25
2022-09-04T13:14:54.102Z,3.78
2022-09-04T13:18:40.598Z,2.20
2022-09-04T13:21:51.931Z,2.90
2022-09-04T13:25:01.602Z,3.22
2022-09-04T13:28:45.087Z,2.00
2022-09-04T13:32:23.981Z,2.08
2022-09-04T13:35:50.243Z,5.07
2022-09-04T13:39:07.686Z,4.25
2022-09-04T13:42:44.467Z,2.40
2022-09-04T13:45:53.364Z,2.78
2022-09-04T13:49:00.185Z,2.58
2022-09-04T13:52:18.566Z,3.30
2022-09-04T13:55:28.078Z,4.25
2022-09-04T13:58:42.374Z,2.28
2022-09-04T14:01:54.606Z,6.10
2022-09-04T14:05:01.559Z,7.82
2022-09-04T14:08:11.482Z,5.70
2022-09-04T14:11:51.136Z,3.30
2022-09-04T14:15:08.190Z,4.78
2022-09-04T14:18:13.715Z,2.63
2022-09-04T14:22:09.571Z,5.65
2022-09-04T14:25:34.777Z,3.80
2022-09-04T14:28:54.932Z,2.58
2022-09-04T14:32:19.098Z,3.45
2022-09-04T14:35:36.406Z,2.40
2022-09-04T14:38:49.217Z,3.22
2022-09-04T14:42:18.656Z,4.68
2022-09-04T14:45:52.112Z,3.78
2022-09-04T14:49:07.747Z,2.90
2022-09-04T14:52:20.270Z,3.97
2022-09-04T14:55:29.681Z,4.88
2022-09-04T14:58:37.993Z,6.57
2022-09-04T15:02:00.500Z,5.32
2022-09-04T15:05:05.474Z,2.30
2022-09-04T15:08:08.312Z,5.13
2022-09-04T15:11:31.189Z,5.15
2022-09-04T15:14:36.744Z,4.13
2022-09-04T15:17:40.399Z,2.13
2022-09-04T15:21:09.893Z,2.47
2022-09-04T15:24:25.774Z,5.25
2022-09-04T15:28:03.930Z,3.60
2022-09-04T15:31:21.259Z,3.13
2022-09-04T15:34:26.723Z,4.10
2022-09-04T15:37:28.786Z,2.10
2022-09-04T15:41:14.995Z,2.55
2022-09-04T15:44:40.034Z,3.08
2022-09-04T15:48:05.920Z,2.95
2022-09-04T15:51:29.252Z,2.13
2022-09-04T15:54:31.648Z,5.00
2022-09-04T15:57:36.317Z,3.45
2022-09-04T16:00:56.868Z,2.78
2022-09-04T16:04:07.478Z,2.72
2022-09-04T16:07:20.281Z,2.40
2022-09-04T16:10:26.131Z,3.35
2022-09-04T16:13:29.029Z,2.92
2022-09-04T16:16:34.241Z,2.78
2022-09-04T16:19:50.127Z,3.05
2022-09-04T16:23:01.055Z,3.80
2022-09-04T16:26:11.389Z,2.53
2022-09-04T16:29:27.810Z,5.78
2022-09-04T16:32:32.359Z,1.60
2022-09-04T16:35:36.807Z,3.10
2022-09-04T16:41:55.086Z,2.45
2022-09-04T16:45:01.356Z,2.08
2022-09-04T16:48:25.095Z,3.35
2022-09-04T16:51:41.314Z,3.42
2022-09-04T16:54:49.318Z,4.57
2022-09-04T16:58:02.558Z,9.93
2022-09-04T17:01:25.977Z,6.28
2022-09-04T17:04:40.112Z,2.92
2022-09-04T17:07:49.124Z,3.70
2022-09-04T17:11:15.081Z,2.05
2022-09-04T17:14:23.183Z,3.17
2022-09-04T17:17:30.550Z,6.80
2022-09-04T17:23:35.389Z,9.20
2022-09-04T17:29:17.342Z,4.43
2022-09-04T17:29:19.625Z,1.80
2022-09-04T17:31:45.913Z,6.03
2022-09-04T17:40:36.705Z,2.42
2022-09-04T17:40:50.008Z,2.28
2022-09-04T17:42:25.253Z,2.38
2022-09-04T17:46:07.964Z,5.60
2022-09-04T17:49:17.814Z,2.88
2022-09-04T17:52:28.790Z,2.45
2022-09-04T17:55:38.804Z,2.88
2022-09-04T17:59:21.870Z,5.10
2022-09-04T18:02:46.052Z,3.15
2022-09-04T18:05:53.033Z,5.25
2022-09-04T18:09:12.817Z,5.32
2022-09-04T18:12:21.938Z,2.13
2022-09-04T18:15:34.899Z,1.65
2022-09-04T18:18:37.699Z,5.10
2022-09-04T18:22:15.705Z,2.42
2022-09-04T18:25:23.179Z,2.42
2022-09-04T18:28:50.788Z,2.38
2022-09-04T18:37:11.131Z,4.43
2022-09-04T18:37:22.454Z,3.17
2022-09-04T18:39:58.029Z,4.68
2022-09-04T18:50:20.529Z,5.68
2022-09-04T18:50:34.794Z,4.32
2022-09-04T18:50:36.970Z,3.83
2022-09-04T18:53:38.571Z,4.30
2022-09-04T18:56:53.421Z,2.85
2022-09-04T19:00:08.307Z,2.75
2022-09-04T19:03:21.967Z,5.07
2022-09-04T19:06:39.359Z,7.75
2022-09-04T19:10:11.263Z,2.80
2022-09-04T19:13:30.426Z,6.20
2022-09-04T19:16:58.353Z,4.13
2022-09-04T19:20:09.795Z,5.20
2022-09-04T19:23:18.774Z,3.08
2022-09-04T19:26:29.231Z,5.10
2022-09-04T19:29:31.445Z,3.55
2022-09-04T19:33:00.517Z,2.63
2022-09-04T19:36:10.192Z,3.55
2022-09-04T19:46:01.428Z,3.15
2022-09-04T19:46:06.919Z,3.40
2022-09-04T19:46:29.369Z,6.28
2022-09-04T19:53:19.979Z,6.60
2022-09-04T19:53:38.928Z,5.68
2022-09-04T19:57:32.325Z,5.13
2022-09-04T20:00:44.376Z,3.03
2022-09-04T20:03:49.560Z,5.15
2022-09-04T20:06:56.646Z,3.55
2022-09-04T20:10:04.517Z,6.43
2022-09-04T20:13:44.721Z,2.90
2022-09-04T20:16:59.604Z,3.05
2022-09-04T20:20:04.462Z,4.68
2022-09-04T20:23:35.063Z,4.95
2022-09-04T20:26:42.932Z,10.30
2022-09-04T20:29:54.784Z,2.80
2022-09-04T20:33:21.299Z,3.03
2022-09-04T20:36:32.107Z,4.05
2022-09-04T20:39:44.830Z,7.95
2022-09-04T20:42:57.036Z,6.25
2022-09-04T20:52:43.140Z,5.30
2022-09-04T20:52:53.302Z,7.18
2022-09-04T20:54:28.762Z,3.03
2022-09-04T21:03:06.439Z,7.57
2022-09-04T21:03:21.750Z,4.60
2022-09-04T21:05:02.981Z,3.30
2022-09-04T21:08:15.214Z,3.67
2022-09-04T21:11:40.827Z,5.90
2022-09-04T21:14:47.240Z,7.40
2022-09-04T21:17:58.638Z,3.25
2022-09-04T21:21:09.646Z,5.45
2022-09-04T21:24:38.765Z,4.35
2022-09-04T21:27:46.951Z,2.25
2022-09-04T21:31:09.170Z,4.80
2022-09-04T21:34:26.263Z,4.20
2022-09-04T21:37:42.202Z,2.22
2022-09-04T21:41:16.174Z,3.15
2022-09-04T21:44:26.943Z,5.53
2022-09-04T21:47:45.009Z,3.78
2022-09-04T21:51:01.536Z,4.35
2022-09-04T21:54:37.401Z,4.47
2022-09-04T22:02:31.820Z,6.07
2022-09-04T22:02:35.906Z,4.05
2022-09-04T22:05:10.921Z,4.95
2022-09-04T22:13:29.758Z,6.10
2022-09-04T22:13:35.129Z,4.03
2022-09-04T22:15:39.488Z,3.67
2022-09-04T22:19:05.677Z,7.75
2022-09-04T22:22:43.142Z,6.13
2022-09-04T22:26:09.159Z,7.23
2022-09-04T22:29:58.375Z,10.80
2022-09-04T22:33:18.965Z,8.27
2022-09-04T22:36:32.950Z,6.90
2022-09-04T22:39:50.290Z,10.18
2022-09-04T22:46:33.274Z,7.15
2022-09-04T22:50:07.966Z,9.45
2022-09-04T22:53:47.197Z,7.47
2022-09-04T22:57:05.364Z,9.00
2022-09-04T23:00:14.792Z,11.65
2022-09-04T23:03:51.256Z,8.90
2022-09-04T23:12:39.036Z,8.77
2022-09-04T23:13:56.457Z,13.75
2022-09-04T23:15:23.698Z,26.17
2022-09-04T23:25:56.839Z,8.55
2022-09-04T23:26:46.246Z,7.72
2022-09-04T23:26:48.239Z,9.57
2022-09-04T23:30:25.309Z,15.68
2022-09-04T23:34:08.050Z,10.27
2022-09-04T23:37:44.457Z,18.77
2022-09-04T23:41:18.036Z,12.15
2022-09-04T23:44:36.099Z,15.32
2022-09-04T23:48:09.516Z,15.05
2022-09-04T23:51:32.314Z,13.52
2022-09-04T23:54:46.262Z,17.50
2022-09-04T23:58:26.399Z,21.20
